Time;durP1;ratioP1;P1;durP2;ratioP2;P2;SDS_P1;SDS_P2;PMS_P1;PMS_P2;Temp;Humidity;BMP_temperature;BMP_pressure;BME280_temperature;BME280_humidity;BME280_pressure;Samples;Min_cycle;Max_cycle;Signal;HPM_P1;HPM_P2
2022/05/08 00:01:26;;;;;;;8.90;3.80;;;;;;;10.81;83.49;101829.40;105457;1287;62212;-85
2022/05/08 00:03:53;;;;;;;8.20;3.00;;;;;;;10.73;83.55;101835.14;105677;1286;75454;-85
2022/05/08 00:06:20;;;;;;;11.50;3.90;;;;;;;10.68;83.45;101834.41;106283;1287;61930;-83
2022/05/08 00:08:46;;;;;;;6.10;3.50;;;;;;;10.63;83.57;101836.84;106387;1287;73136;-83
2022/05/08 00:11:13;;;;;;;11.50;4.30;;;;;;;10.57;83.90;101837.17;105822;1287;62151;-84
2022/05/08 00:13:39;;;;;;;8.40;4.30;;;;;;;10.51;83.90;101836.20;105115;1287;62122;-84
2022/05/08 00:16:06;;;;;;;8.00;4.00;;;;;;;10.47;83.71;101833.23;105013;1287;77117;-84
2022/05/08 00:18:33;;;;;;;11.10;3.30;;;;;;;10.42;83.92;101835.22;105393;1287;62029;-84
2022/05/08 00:20:59;;;;;;;9.80;4.50;;;;;;;10.37;83.81;101830.46;105313;1287;62053;-84
2022/05/08 00:23:26;;;;;;;12.10;3.40;;;;;;;10.30;84.07;101831.98;105277;1288;62103;-83
2022/05/08 00:25:53;;;;;;;13.90;4.00;;;;;;;10.22;84.43;101831.44;105360;1287;61952;-85
2022/05/08 00:28:19;;;;;;;7.10;2.90;;;;;;;10.15;84.77;101830.70;105442;1287;61054;-83
2022/05/08 00:30:45;;;;;;;6.80;3.30;;;;;;;10.08;84.61;101831.00;105491;1287;62692;-84
2022/05/08 00:33:12;;;;;;;11.50;3.10;;;;;;;10.02;84.78;101832.58;105499;1287;62128;-84
2022/05/08 00:35:39;;;;;;;7.90;2.50;;;;;;;9.97;84.87;101834.65;105536;1287;62078;-84
2022/05/08 00:38:05;;;;;;;9.40;2.60;;;;;;;9.91;85.35;101836.52;106047;1286;60140;-84
2022/05/08 00:40:35;;;;;;;9.50;3.20;;;;;;;9.85;85.61;101835.80;106379;1287;76056;-84
2022/05/08 00:43:28;;;;;;;10.80;3.80;;;;;;;9.80;85.53;101839.05;106272;1286;71499;-83
2022/05/08 00:45:56;;;;;;;11.80;3.40;;;;;;;9.73;85.45;101841.98;106231;1287;75113;-82
2022/05/08 00:48:23;;;;;;;9.50;3.30;;;;;;;9.70;85.40;101840.73;105877;1287;63386;-83
2022/05/08 00:50:52;;;;;;;11.20;3.60;;;;;;;9.65;85.55;101845.09;105555;1287;61793;-83
2022/05/08 00:53:19;;;;;;;9.60;3.50;;;;;;;9.61;85.00;101850.23;105347;1287;75958;-84
2022/05/08 00:55:47;;;;;;;9.50;3.20;;;;;;;9.55;85.10;101852.45;105465;1286;71395;-82
2022/05/08 00:58:17;;;;;;;9.80;2.60;;;;;;;9.49;84.61;101854.78;105386;1287;74017;-82
2022/05/08 01:00:44;;;;;;;9.70;2.70;;;;;;;9.40;83.93;101853.31;105464;1287;62522;-86
2022/05/08 01:03:11;;;;;;;7.60;2.50;;;;;;;9.33;83.06;101856.20;105341;1287;62116;-84
2022/05/08 01:05:42;;;;;;;7.80;2.40;;;;;;;9.26;83.24;101858.79;105537;1287;75797;-83
2022/05/08 01:08:10;;;;;;;9.50;2.00;;;;;;;9.18;82.61;101859.67;106626;1287;73058;-83
2022/05/08 01:10:38;;;;;;;10.60;2.70;;;;;;;9.11;82.66;101861.95;106839;1287;72893;-85
2022/05/08 01:13:05;;;;;;;9.30;2.50;;;;;;;9.04;82.61;101858.73;106939;1287;63900;-84
2022/05/08 01:15:44;;;;;;;8.80;3.20;;;;;;;8.96;82.52;101859.34;106986;1286;61088;-84
2022/05/08 01:18:14;;;;;;;12.00;3.00;;;;;;;8.90;82.90;101860.09;107082;1287;77342;-83
2022/05/08 01:20:42;;;;;;;13.60;2.80;;;;;;;8.84;82.86;101859.15;107147;1287;71482;-83
2022/05/08 01:23:11;;;;;;;7.40;2.90;;;;;;;8.79;82.71;101861.36;106207;1287;73607;-84
2022/05/08 01:25:52;;;;;;;11.00;2.60;;;;;;;8.75;83.30;101868.95;105088;1288;63732;-82
2022/05/08 01:28:21;;;;;;;11.70;2.60;;;;;;;8.70;82.95;101872.92;104999;1287;62137;-84
2022/05/08 01:30:50;;;;;;;12.10;2.40;;;;;;;8.65;82.55;101875.15;105040;1288;76570;-83
2022/05/08 01:33:18;;;;;;;8.50;3.30;;;;;;;8.61;82.27;101876.04;105143;1288;70495;-84
2022/05/08 01:35:45;;;;;;;8.00;2.40;;;;;;;8.57;82.25;101874.02;105401;1287;71917;-83
2022/05/08 01:38:14;;;;;;;8.20;2.00;;;;;;;8.54;82.16;101875.36;105251;1287;62792;-84
2022/05/08 01:40:43;;;;;;;10.40;2.50;;;;;;;8.50;82.36;101873.39;105150;1287;61986;-84
2022/05/08 01:43:10;;;;;;;3.40;1.30;;;;;;;8.47;82.19;101875.30;105010;1287;75699;-83
2022/05/08 01:45:38;;;;;;;12.10;2.60;;;;;;;8.42;82.38;101878.16;105120;1288;72561;-84
2022/05/08 01:48:22;;;;;;;10.40;3.00;;;;;;;8.37;82.88;101877.16;105011;1288;71099;-84
2022/05/08 01:50:50;;;;;;;8.80;2.20;;;;;;;8.31;83.46;101877.11;105333;1287;62491;-83
2022/05/08 01:53:23;;;;;;;6.20;2.20;;;;;;;8.25;83.98;101884.15;105407;1287;62151;-85
2022/05/08 01:55:53;;;;;;;7.80;2.10;;;;;;;8.19;84.03;101888.04;105473;1287;75774;-83
2022/05/08 01:58:21;;;;;;;13.30;2.80;;;;;;;8.14;83.92;101888.42;105510;1287;73699;-83
2022/05/08 02:00:49;;;;;;;11.50;2.60;;;;;;;8.11;84.27;101893.98;105361;1287;74003;-83
2022/05/08 02:03:17;;;;;;;8.40;2.30;;;;;;;8.07;84.40;101893.80;105382;1287;62209;-84
2022/05/08 02:05:44;;;;;;;7.00;1.90;;;;;;;8.03;84.33;101896.55;106986;1286;61888;-84
2022/05/08 02:08:11;;;;;;;6.60;2.30;;;;;;;8.00;84.54;101898.27;106695;1287;76975;-83
2022/05/08 02:10:38;;;;;;;8.80;2.10;;;;;;;7.95;84.30;101899.36;106939;1288;72731;-83
2022/05/08 02:13:07;;;;;;;10.50;2.40;;;;;;;7.90;84.67;101898.52;107061;1287;74089;-83
2022/05/08 02:15:34;;;;;;;8.50;2.40;;;;;;;7.85;84.71;101896.20;106946;1287;61428;-84
2022/05/08 02:18:06;;;;;;;9.30;2.70;;;;;;;7.78;84.79;101897.98;105269;1288;62142;-83
2022/05/08 02:20:33;;;;;;;8.70;2.30;;;;;;;7.71;84.88;101904.33;105301;1287;77042;-83
2022/05/08 02:23:00;;;;;;;10.30;2.50;;;;;;;7.65;85.17;101910.13;105512;1287;72371;-83
2022/05/08 02:25:26;;;;;;;6.70;3.00;;;;;;;7.59;85.12;101915.73;105522;1287;73916;-84
2022/05/08 02:27:54;;;;;;;18.60;2.60;;;;;;;7.51;85.56;101913.77;105467;1287;62237;-84
2022/05/08 02:30:22;;;;;;;8.80;2.10;;;;;;;7.42;85.54;101920.77;105274;1288;61602;-83
2022/05/08 02:32:56;;;;;;;12.20;2.30;;;;;;;7.34;85.73;101918.27;105516;1287;75196;-84
2022/05/08 02:35:23;;;;;;;15.80;2.70;;;;;;;7.26;85.72;101916.99;105312;1287;72655;-84
2022/05/08 02:37:52;;;;;;;10.10;2.20;;;;;;;7.19;85.92;101918.80;105817;1287;72953;-83
2022/05/08 02:40:22;;;;;;;12.40;2.80;;;;;;;7.10;86.30;101921.91;105384;1287;61173;-84
2022/05/08 02:42:49;;;;;;;10.10;3.10;;;;;;;7.04;86.32;101919.64;105994;1287;61963;-83
2022/05/08 02:45:16;;;;;;;12.60;2.60;;;;;;;6.97;86.56;101916.11;106131;1287;75954;-83
2022/05/08 02:47:42;;;;;;;9.70;3.40;;;;;;;6.90;86.93;101920.85;105991;1287;71595;-83
2022/05/08 02:50:10;;;;;;;12.00;2.20;;;;;;;6.84;87.21;101919.96;106194;1287;62139;-83
2022/05/08 02:52:41;;;;;;;10.60;3.20;;;;;;;6.77;87.38;101919.61;105918;1288;64120;-83
2022/05/08 03:00:42;;;;;;;12.40;2.70;;;;;;;6.55;88.02;101918.84;106533;1287;72754;-83
2022/05/08 03:03:10;;;;;;;14.40;3.10;;;;;;;6.48;88.56;101917.27;105381;1288;76680;-83
2022/05/08 03:05:40;;;;;;;13.20;4.30;;;;;;;6.43;88.69;101914.71;107005;1286;61698;-83
2022/05/08 03:08:07;;;;;;;7.10;2.00;;;;;;;6.36;89.32;101914.52;106386;1288;61661;-83
2022/05/08 03:13:20;;;;;;;7.70;2.50;;;;;;;6.23;89.79;101918.49;105387;1287;71482;-83
2022/05/08 03:15:47;;;;;;;11.30;2.40;;;;;;;6.17;89.80;101916.84;105378;1287;73856;-83
2022/05/08 03:18:14;;;;;;;9.90;2.30;;;;;;;6.11;90.22;101918.46;106506;1286;62083;-84
2022/05/08 03:20:41;;;;;;;6.90;2.00;;;;;;;6.06;90.23;101921.48;105274;1288;62001;-83
2022/05/08 03:23:08;;;;;;;6.70;2.60;;;;;;;6.02;90.77;101926.77;105121;1287;62184;-83
2022/05/08 03:25:34;;;;;;;15.80;3.50;;;;;;;5.97;90.69;101923.45;105181;1287;71355;-83
2022/05/08 03:28:01;;;;;;;10.80;2.50;;;;;;;5.93;90.84;101926.52;105222;1287;74004;-83
2022/05/08 03:30:28;;;;;;;10.30;3.30;;;;;;;5.88;90.89;101930.02;105258;1287;62101;-83
2022/05/08 03:32:56;;;;;;;8.90;2.50;;;;;;;5.83;91.20;101923.41;105379;1287;62071;-83
2022/05/08 03:35:23;;;;;;;8.40;1.90;;;;;;;5.78;91.40;101925.00;105258;1287;76936;-84
2022/05/08 03:37:49;;;;;;;8.40;2.40;;;;;;;5.73;91.42;101931.80;105349;1287;61997;-84
2022/05/08 03:40:16;;;;;;;12.80;3.70;;;;;;;5.69;91.39;101932.48;105472;1287;61974;-84
2022/05/08 03:42:42;;;;;;;18.60;3.40;;;;;;;5.66;91.66;101936.38;105375;1287;60725;-83
2022/05/08 03:45:10;;;;;;;10.70;2.00;;;;;;;5.64;92.11;101932.27;105281;1287;62033;-84
2022/05/08 03:47:36;;;;;;;18.70;3.10;;;;;;;5.63;92.18;101932.55;105307;1287;76541;-82
2022/05/08 03:50:06;;;;;;;12.20;2.60;;;;;;;5.62;92.72;101934.55;105272;1287;61978;-82
2022/05/08 03:52:34;;;;;;;9.90;2.40;;;;;;;5.61;93.17;101936.42;105497;1287;74059;-83
2022/05/08 03:55:03;;;;;;;8.50;2.20;;;;;;;5.59;93.36;101937.41;105601;1287;62148;-83
2022/05/08 03:57:30;;;;;;;13.70;2.60;;;;;;;5.58;93.44;101937.70;105631;1287;61996;-83
2022/05/08 03:59:56;;;;;;;10.60;2.70;;;;;;;5.56;93.67;101941.84;105410;1286;61986;-84
2022/05/08 04:02:23;;;;;;;11.10;3.00;;;;;;;5.57;93.56;101940.60;105355;1287;71263;-84
2022/05/08 04:04:50;;;;;;;13.70;2.90;;;;;;;5.56;93.37;101935.56;105111;1288;73547;-83
2022/05/08 04:07:17;;;;;;;11.40;3.60;;;;;;;5.56;93.50;101930.08;105346;1287;62744;-83
2022/05/08 04:09:44;;;;;;;15.10;3.60;;;;;;;5.58;93.45;101928.56;105218;1287;62135;-83
2022/05/08 04:12:11;;;;;;;14.20;3.60;;;;;;;5.58;93.60;101926.95;105387;1287;75798;-83
2022/05/08 04:14:37;;;;;;;17.30;2.80;;;;;;;5.60;93.60;101924.75;105298;1287;61870;-83
2022/05/08 04:17:04;;;;;;;10.10;2.70;;;;;;;5.61;93.42;101926.20;105417;1285;61304;-83
2022/05/08 04:19:31;;;;;;;10.80;3.00;;;;;;;5.63;93.74;101926.61;105367;1287;62582;-83
2022/05/08 04:24:42;;;;;;;9.00;3.00;;;;;;;5.67;93.85;101933.30;105346;1287;75560;-83
2022/05/08 04:27:10;;;;;;;14.90;3.40;;;;;;;5.70;93.80;101931.88;105381;1287;70920;-83
2022/05/08 04:29:37;;;;;;;14.70;3.50;;;;;;;5.72;93.97;101937.83;105256;1288;73060;-82
2022/05/08 04:32:04;;;;;;;12.80;3.10;;;;;;;5.77;93.84;101940.38;105314;1288;62141;-83
2022/05/08 04:34:30;;;;;;;19.40;4.00;;;;;;;5.79;94.04;101943.67;105236;1287;61387;-83
2022/05/08 04:36:58;;;;;;;10.40;3.60;;;;;;;5.83;94.05;101944.08;105452;1287;75709;-83
2022/05/08 04:39:24;;;;;;;11.80;3.70;;;;;;;5.88;93.88;101947.95;105308;1287;72380;-82
2022/05/08 04:41:52;;;;;;;9.30;2.10;;;;;;;5.93;93.76;101954.80;105051;1287;74778;-84
2022/05/08 04:44:18;;;;;;;16.80;2.60;;;;;;;5.97;93.67;101957.16;105107;1287;62547;-85
2022/05/08 04:46:45;;;;;;;12.40;2.50;;;;;;;6.00;93.69;101956.35;105011;1287;62083;-84
2022/05/08 04:49:12;;;;;;;7.80;2.80;;;;;;;6.05;93.52;101956.73;105043;1287;75852;-84
2022/05/08 04:51:38;;;;;;;11.90;3.00;;;;;;;6.09;93.54;101962.36;105700;1287;73361;-83
2022/05/08 04:54:05;;;;;;;10.90;2.70;;;;;;;6.13;93.59;101967.01;106065;1287;61996;-83
2022/05/08 04:56:32;;;;;;;11.70;2.50;;;;;;;6.16;93.26;101968.02;106217;1287;61978;-84
2022/05/08 04:58:58;;;;;;;9.00;2.40;;;;;;;6.21;93.02;101964.70;106257;1287;62122;-83
2022/05/08 05:01:25;;;;;;;7.80;3.00;;;;;;;6.26;92.92;101971.98;105551;1288;76836;-84
2022/05/08 05:03:52;;;;;;;12.30;3.30;;;;;;;6.34;92.62;101972.83;105398;1287;72294;-83
2022/05/08 05:06:23;;;;;;;13.20;2.90;;;;;;;6.42;92.49;101975.73;107055;1287;72984;-84
2022/05/08 05:08:50;;;;;;;13.80;3.30;;;;;;;6.48;91.76;101977.74;106672;1287;62216;-84
2022/05/08 05:11:17;;;;;;;9.50;2.60;;;;;;;6.53;91.43;101980.49;105261;1288;62157;-84
2022/05/08 05:13:43;;;;;;;10.60;2.70;;;;;;;6.61;91.31;101986.61;105383;1287;62130;-83
2022/05/08 05:16:10;;;;;;;12.50;2.00;;;;;;;6.68;90.98;101990.25;105514;1287;71884;-83
2022/05/08 05:18:37;;;;;;;15.50;3.50;;;;;;;6.76;90.74;101994.05;105520;1287;73610;-84
2022/05/08 05:21:06;;;;;;;6.50;2.40;;;;;;;6.84;90.25;101995.77;105521;1287;61530;-83
2022/05/08 05:23:35;;;;;;;11.30;2.80;;;;;;;6.92;89.74;101999.63;105986;1287;62927;-83
2022/05/08 05:26:02;;;;;;;10.00;3.40;;;;;;;7.02;89.26;102005.13;105160;1287;76271;-84
2022/05/08 05:28:32;;;;;;;11.40;2.70;;;;;;;7.09;88.66;102013.13;105212;1288;71407;-83
2022/05/08 05:30:59;;;;;;;8.20;2.20;;;;;;;7.17;88.03;102011.45;105310;1287;72938;-84
2022/05/08 05:33:25;;;;;;;13.90;2.60;;;;;;;7.25;87.57;102008.74;105425;1287;62129;-84
2022/05/08 05:35:52;;;;;;;12.80;3.10;;;;;;;7.31;87.04;102013.83;105218;1287;62090;-83
2022/05/08 05:38:18;;;;;;;18.70;4.00;;;;;;;7.40;86.14;102013.38;105302;1287;62232;-83
2022/05/08 05:40:45;;;;;;;7.70;2.40;;;;;;;7.46;85.61;102019.07;105109;1290;62001;-83
2022/05/08 05:43:12;;;;;;;9.00;2.00;;;;;;;7.53;84.94;102023.05;105344;1287;60269;-84
2022/05/08 05:45:41;;;;;;;12.70;2.20;;;;;;;7.60;84.26;102026.23;105322;1287;61996;-84
2022/05/08 05:48:09;;;;;;;9.70;1.90;;;;;;;7.65;83.67;102030.03;105318;1287;62111;-82
2022/05/08 05:50:37;;;;;;;7.60;2.30;;;;;;;7.72;83.47;102028.17;104944;1288;75381;-83
2022/05/08 05:53:04;;;;;;;10.10;3.30;;;;;;;7.82;83.32;102027.45;105332;1288;71363;-83
2022/05/08 05:55:30;;;;;;;16.10;2.70;;;;;;;7.88;82.22;102027.64;105427;1287;72921;-84
2022/05/08 05:57:57;;;;;;;7.80;1.90;;;;;;;7.97;81.85;102032.75;105266;1287;62144;-83
2022/05/08 06:00:24;;;;;;;12.30;2.30;;;;;;;8.04;81.35;102034.98;105256;1287;62191;-84
2022/05/08 06:02:50;;;;;;;11.70;1.80;;;;;;;8.12;81.11;102035.66;105136;1287;78039;-83
2022/05/08 06:05:17;;;;;;;4.10;1.50;;;;;;;8.20;80.28;102034.92;105242;1287;61847;-82
2022/05/08 06:07:43;;;;;;;14.60;2.40;;;;;;;8.27;79.94;102032.61;105225;1287;61952;-83
2022/05/08 06:10:11;;;;;;;10.10;1.70;;;;;;;8.36;80.12;102038.14;105356;1287;61455;-83
2022/05/08 06:12:38;;;;;;;8.30;2.90;;;;;;;8.46;79.43;102037.52;105368;1287;62102;-83
2022/05/08 06:15:08;;;;;;;7.50;1.40;;;;;;;8.53;78.70;102038.52;105182;1287;77124;-83
2022/05/08 06:17:35;;;;;;;17.40;3.10;;;;;;;8.60;78.35;102032.48;105251;1287;71354;-84
2022/05/08 06:20:03;;;;;;;8.90;1.90;;;;;;;8.71;78.17;102032.27;105367;1287;71704;-83
2022/05/08 06:22:32;;;;;;;3.10;1.30;;;;;;;8.82;77.76;102030.45;105307;1287;62711;-83
2022/05/08 06:24:59;;;;;;;8.20;1.40;;;;;;;8.92;77.45;102032.92;105429;1287;60242;-83
2022/05/08 06:27:26;;;;;;;7.20;1.40;;;;;;;9.02;76.39;102027.90;105476;1286;76348;-83
2022/05/08 06:29:52;;;;;;;3.60;1.50;;;;;;;9.13;75.82;102029.53;105515;1287;72406;-83
2022/05/08 06:32:19;;;;;;;14.40;2.70;;;;;;;9.19;73.90;102027.81;105479;1287;60656;-84
2022/05/08 06:34:47;;;;;;;9.70;1.60;;;;;;;9.19;72.90;102030.48;105519;1287;63542;-83
2022/05/08 06:37:13;;;;;;;8.80;1.40;;;;;;;9.19;72.88;102030.52;105266;1287;61702;-83
2022/05/08 06:39:40;;;;;;;8.90;1.60;;;;;;;9.26;73.41;102028.46;105422;1287;76246;-83
2022/05/08 06:42:07;;;;;;;7.50;1.50;;;;;;;9.36;73.27;102031.27;105384;1287;62219;-83
2022/05/08 06:44:33;;;;;;;13.10;2.60;;;;;;;9.41;72.18;102029.98;105333;1287;73091;-84
2022/05/08 06:47:00;;;;;;;10.50;1.80;;;;;;;9.48;72.44;102028.45;105258;1287;61995;-83
2022/05/08 06:49:28;;;;;;;8.00;1.50;;;;;;;9.55;71.47;102029.23;105394;1287;62074;-83
2022/05/08 06:51:54;;;;;;;4.40;1.50;;;;;;;9.66;71.61;102025.11;105190;1287;75608;-84
2022/05/08 06:54:20;;;;;;;15.30;1.90;;;;;;;9.79;71.01;102029.28;105487;1287;61926;-83
2022/05/08 06:56:47;;;;;;;10.20;1.90;;;;;;;9.89;70.84;102026.64;105364;1287;60979;-84
2022/05/08 07:02:07;;;;;;;9.30;1.70;;;;;;;10.11;69.66;102029.04;105509;1287;62080;-83
2022/05/08 07:04:33;;;;;;;6.60;1.30;;;;;;;10.23;69.56;102028.48;105314;1287;77684;-83
2022/05/08 07:07:00;;;;;;;10.20;1.90;;;;;;;10.34;68.81;102034.05;105440;1286;62218;-83
2022/05/08 07:09:28;;;;;;;10.20;2.00;;;;;;;10.42;67.81;102034.59;105187;1287;72970;-83
2022/05/08 07:11:54;;;;;;;6.60;1.60;;;;;;;10.52;67.87;102041.58;105295;1287;62419;-83
2022/05/08 07:14:27;;;;;;;10.10;2.20;;;;;;;10.59;66.51;102034.56;105435;1287;61977;-83
2022/05/08 07:16:54;;;;;;;5.90;1.50;;;;;;;10.61;66.03;102036.01;105508;1286;75687;-84
2022/05/08 07:19:20;;;;;;;7.90;1.80;;;;;;;10.63;65.83;102037.08;105033;1287;72221;-83
2022/05/08 07:21:47;;;;;;;6.20;1.40;;;;;;;10.65;66.27;102033.83;105395;1287;63368;-83
2022/05/08 07:24:19;;;;;;;5.70;1.30;;;;;;;10.74;66.47;102034.30;105085;1288;62096;-83
2022/05/08 07:26:47;;;;;;;9.70;2.70;;;;;;;10.84;65.35;102031.23;105198;1287;62056;-84
2022/05/08 07:29:14;;;;;;;9.60;1.60;;;;;;;10.94;64.30;102030.45;105332;1287;74687;-84
2022/05/08 07:31:42;;;;;;;6.90;1.50;;;;;;;11.06;64.21;102032.03;105425;1287;72681;-84
2022/05/08 07:36:56;;;;;;;8.80;1.70;;;;;;;11.14;62.49;102028.92;105410;1287;62373;-83
2022/05/08 07:39:23;;;;;;;6.50;1.60;;;;;;;11.16;62.19;102033.54;105517;1287;62348;-83
2022/05/08 07:41:49;;;;;;;4.70;1.00;;;;;;;11.20;62.50;102028.88;105555;1287;75850;-83
2022/05/08 07:44:16;;;;;;;5.60;1.50;;;;;;;11.28;60.99;102031.33;105515;1287;62122;-83
2022/05/08 07:46:43;;;;;;;6.00;1.10;;;;;;;11.40;61.62;102033.73;105432;1287;72741;-83
2022/05/08 07:49:10;;;;;;;6.10;1.60;;;;;;;11.57;61.71;102037.23;105501;1287;61992;-83
2022/05/08 07:51:37;;;;;;;6.80;1.20;;;;;;;11.72;61.73;102032.55;105191;1288;60314;-84
2022/05/08 07:54:04;;;;;;;11.80;3.70;;;;;;;11.87;60.91;102034.27;105491;1287;76159;-84
2022/05/08 07:56:30;;;;;;;4.90;1.30;;;;;;;12.00;60.60;102027.52;105415;1287;62713;-84
2022/05/08 07:58:57;;;;;;;6.90;1.50;;;;;;;12.05;60.08;102027.27;105416;1287;74777;-83
2022/05/08 08:01:23;;;;;;;4.20;1.20;;;;;;;12.09;60.44;102025.96;105210;1287;62627;-84
2022/05/08 08:04:10;;;;;;;9.30;1.50;;;;;;;12.16;60.07;102030.35;105337;1287;63355;-83
2022/05/08 08:06:37;;;;;;;6.60;1.50;;;;;;;12.17;58.46;102032.09;105463;1287;77606;-83
2022/05/08 08:09:04;;;;;;;4.30;1.70;;;;;;;12.07;57.84;102032.90;105313;1287;62049;-82
2022/05/08 08:11:32;;;;;;;6.60;1.60;;;;;;;11.98;58.42;102034.80;106825;1287;72262;-83
2022/05/08 08:13:59;;;;;;;9.20;1.50;;;;;;;11.93;58.78;102036.90;106719;1288;61881;-83
2022/05/08 08:16:26;;;;;;;10.80;2.00;;;;;;;11.95;58.15;102042.41;107092;1287;60522;-83
2022/05/08 08:18:56;;;;;;;5.70;1.30;;;;;;;12.02;57.85;102040.48;107100;1287;76975;-83
2022/05/08 08:21:23;;;;;;;11.00;2.70;;;;;;;12.15;59.03;102040.19;107070;1286;71380;-83
2022/05/08 08:23:50;;;;;;;9.50;1.60;;;;;;;12.35;59.50;102034.92;107077;1287;73138;-83
2022/05/08 08:26:17;;;;;;;5.60;1.60;;;;;;;12.54;58.54;102041.48;105441;1287;62513;-84
2022/05/08 08:28:44;;;;;;;5.10;1.50;;;;;;;12.65;57.51;102041.15;105463;1287;61901;-83
2022/05/08 08:31:11;;;;;;;10.20;1.50;;;;;;;12.70;56.50;102042.21;105048;1288;75762;-83
2022/05/08 08:33:39;;;;;;;5.60;1.50;;;;;;;12.72;55.86;102042.34;105589;1287;71335;-83
2022/05/08 08:36:09;;;;;;;3.50;1.00;;;;;;;12.78;55.03;102044.20;105421;1287;72334;-83
2022/05/08 08:38:36;;;;;;;13.00;2.10;;;;;;;12.76;53.77;102047.96;105708;1287;62284;-83
2022/05/08 08:41:07;;;;;;;4.90;2.20;;;;;;;12.83;54.91;102042.14;105654;1287;62024;-83
2022/05/08 08:49:24;;;;;;;6.20;1.50;;;;;;;13.25;54.45;102043.31;105491;1287;74250;-83
2022/05/08 08:51:52;;;;;;;7.80;1.30;;;;;;;13.34;53.21;102047.71;105578;1287;62158;-83
2022/05/08 08:54:19;;;;;;;6.60;1.90;;;;;;;13.39;52.67;102048.63;105409;1287;62109;-82
2022/05/08 08:56:49;;;;;;;5.40;1.60;;;;;;;13.48;52.45;102047.34;107069;1287;75737;-83
2022/05/08 08:59:22;;;;;;;5.40;1.20;;;;;;;13.60;52.37;102049.31;106811;1287;72429;-84
2022/05/08 09:01:49;;;;;;;7.40;2.30;;;;;;;13.62;51.65;102056.40;105354;1287;73001;-83
2022/05/08 09:04:18;;;;;;;7.90;1.80;;;;;;;13.65;51.49;102059.80;105239;1287;62298;-86
2022/05/08 09:06:45;;;;;;;8.30;1.60;;;;;;;13.67;52.11;102057.27;105464;1287;62115;-83
2022/05/08 09:09:26;;;;;;;5.00;1.70;;;;;;;13.75;51.83;102057.98;106218;1286;75868;-82
2022/05/08 09:11:55;;;;;;;6.40;1.50;;;;;;;13.82;50.76;102061.55;106151;1288;71572;-82
2022/05/08 09:14:32;;;;;;;5.50;1.90;;;;;;;13.82;50.33;102065.27;106892;1288;74342;-83
2022/05/08 09:17:00;;;;;;;9.70;1.40;;;;;;;13.93;50.78;102065.20;106995;1287;61053;-82
2022/05/08 09:19:32;;;;;;;3.40;1.30;;;;;;;13.98;50.55;102065.95;107075;1287;61016;-83
2022/05/08 09:22:00;;;;;;;7.40;1.20;;;;;;;13.98;50.51;102067.91;106570;1287;75981;-82
2022/05/08 09:24:28;;;;;;;6.10;2.00;;;;;;;13.97;51.01;102063.91;106932;1287;71521;-83
2022/05/08 09:27:15;;;;;;;5.20;1.60;;;;;;;14.07;50.69;102060.16;106901;1287;73614;-83
2022/05/08 09:29:43;;;;;;;18.50;2.20;;;;;;;14.14;50.36;102064.90;105961;1288;61749;-83
2022/05/08 09:32:37;;;;;;;3.90;1.20;;;;;;;14.08;49.60;102061.96;105361;1287;63209;-82
2022/05/08 09:35:04;;;;;;;4.00;1.20;;;;;;;14.01;47.81;102062.75;105279;1287;75827;-82
2022/05/08 09:37:31;;;;;;;6.40;1.60;;;;;;;13.98;48.52;102059.35;105407;1287;72333;-82
2022/05/08 09:40:18;;;;;;;6.30;1.30;;;;;;;13.97;48.23;102056.95;105309;1287;62070;-83
2022/05/08 09:42:46;;;;;;;5.60;1.90;;;;;;;14.08;49.66;102052.09;104941;1288;456644;-83
2022/05/08 09:45:13;;;;;;;6.70;1.60;;;;;;;14.27;50.22;102048.57;105229;1286;61291;-83
2022/05/08 09:47:44;;;;;;;6.10;1.60;;;;;;;14.48;49.86;102053.35;105446;1287;75398;-82
2022/05/08 09:50:12;;;;;;;8.30;1.90;;;;;;;14.54;48.89;102048.84;105309;1287;72351;-83
2022/05/08 09:52:41;;;;;;;3.90;1.30;;;;;;;14.65;49.40;102044.29;105443;1287;74198;-81
2022/05/08 09:55:10;;;;;;;4.90;1.20;;;;;;;14.73;48.99;102047.67;105416;1287;60733;-82
2022/05/08 09:57:39;;;;;;;7.00;1.40;;;;;;;14.75;48.55;102052.79;105427;1287;61950;-83
2022/05/08 10:00:12;;;;;;;4.50;1.30;;;;;;;14.80;48.32;102042.44;105281;1288;76219;-82
2022/05/08 10:02:38;;;;;;;3.50;1.10;;;;;;;14.88;47.35;102046.59;105562;1287;73115;-82
2022/05/08 10:05:06;;;;;;;3.20;1.10;;;;;;;14.85;45.39;102049.38;105394;1286;74204;-82
2022/05/08 10:07:33;;;;;;;3.40;0.90;;;;;;;14.75;45.34;102046.34;105217;1287;61016;-82
2022/05/08 10:15:31;;;;;;;3.70;2.00;;;;;;;14.79;44.76;102052.15;105359;1287;71044;-83
2022/05/08 10:18:18;;;;;;;4.30;1.20;;;;;;;14.73;44.68;102049.15;105738;1287;72678;-83
2022/05/08 10:21:07;;;;;;;;;;;;;;;14.67;44.79;102053.09;106195;1287;62176;-82
2022/05/08 10:23:38;;;;;;;5.40;0.90;;;;;;;14.80;45.63;102043.16;105485;1286;61981;-83
2022/05/08 10:26:16;;;;;;;8.60;2.10;;;;;;;14.97;45.04;102043.80;105242;1287;76876;-82
2022/05/08 10:29:04;;;;;;;6.10;1.30;;;;;;;15.10;44.24;102041.42;106040;1287;72113;-82
2022/05/08 10:31:51;;;;;;;4.50;1.40;;;;;;;15.18;42.31;102041.42;106841;1287;72652;-82
2022/05/08 10:34:32;;;;;;;4.60;1.40;;;;;;;15.35;42.26;102037.05;107248;1286;62198;-82
2022/05/08 10:37:13;;;;;;;2.40;1.00;;;;;;;15.58;42.23;102034.38;106999;1286;61956;-83
2022/05/08 10:39:41;;;;;;;3.80;1.10;;;;;;;15.75;40.85;102030.33;105424;1287;75944;-83
2022/05/08 10:42:33;;;;;;;2.10;0.90;;;;;;;15.88;39.78;102035.98;105222;1287;72804;-82
2022/05/08 10:45:00;;;;;;;6.40;1.20;;;;;;;15.95;40.43;102030.90;105374;1287;72916;-82
2022/05/08 10:47:33;;;;;;;4.70;1.50;;;;;;;15.98;40.01;102033.95;105442;1287;61877;-83
2022/05/08 10:50:00;;;;;;;3.60;1.30;;;;;;;16.03;39.34;102036.36;105639;1286;61640;-82
2022/05/08 10:52:30;;;;;;;4.80;1.20;;;;;;;16.07;40.35;102037.21;105489;1287;74891;-82
2022/05/08 10:55:01;;;;;;;5.10;1.30;;;;;;;16.16;40.56;102036.02;105558;1287;70362;-83
2022/05/08 10:57:36;;;;;;;3.80;1.30;;;;;;;16.27;41.71;102031.30;105363;1288;72842;-82
2022/05/08 11:00:05;;;;;;;10.00;2.00;;;;;;;16.40;41.68;102034.11;105583;1287;62115;-82
2022/05/08 11:02:48;;;;;;;5.20;1.20;;;;;;;16.58;42.31;102031.78;105572;1287;62013;-82
2022/05/08 11:05:22;;;;;;;4.70;1.20;;;;;;;16.64;39.73;102037.88;105514;1287;75998;-83
2022/05/08 11:07:50;;;;;;;3.30;1.00;;;;;;;16.50;38.82;102030.13;105365;1287;71609;-83
2022/05/08 11:10:25;;;;;;;5.90;1.40;;;;;;;16.54;38.99;102034.25;105430;1287;73964;-82
2022/05/08 11:13:00;;;;;;;4.80;1.00;;;;;;;16.60;39.07;102031.56;106170;1287;62019;-83
2022/05/08 11:15:31;;;;;;;3.90;0.90;;;;;;;16.67;37.99;102027.86;106053;1287;62073;-83
2022/05/08 11:18:10;;;;;;;5.60;1.30;;;;;;;16.77;38.27;102029.59;107267;1287;75436;-82
2022/05/08 11:20:45;;;;;;;4.90;1.30;;;;;;;16.87;38.37;102025.19;106965;1287;70409;-82
2022/05/08 11:23:14;;;;;;;4.50;0.90;;;;;;;17.05;37.82;102022.92;106506;1287;73167;-83
2022/05/08 11:25:44;;;;;;;7.80;1.40;;;;;;;17.09;37.44;102022.41;105529;1287;62002;-83
2022/05/08 11:28:19;;;;;;;4.10;1.00;;;;;;;17.21;37.88;102023.96;105583;1287;62157;-82
2022/05/08 11:30:47;;;;;;;3.80;0.90;;;;;;;17.23;36.99;102021.89;105270;1287;76106;-82
2022/05/08 11:36:08;;;;;;;5.60;1.20;;;;;;;17.17;35.57;102019.24;105169;1287;72892;-82
2022/05/08 11:38:45;;;;;;;7.30;1.60;;;;;;;17.25;35.85;102016.29;105223;1287;62039;-82
2022/05/08 11:41:21;;;;;;;4.70;1.10;;;;;;;17.21;35.58;102018.27;105499;1287;62146;-83
2022/05/08 11:43:50;;;;;;;7.40;1.50;;;;;;;17.19;35.52;102010.28;105514;1287;76358;-82
2022/05/08 11:46:20;;;;;;;5.80;1.60;;;;;;;17.25;36.12;102009.61;105518;1287;71845;-82
2022/05/08 11:48:50;;;;;;;4.50;1.20;;;;;;;17.45;36.31;102000.77;106918;1287;74107;-82
2022/05/08 11:51:20;;;;;;;4.90;1.20;;;;;;;17.61;35.09;102007.20;106300;1287;62163;-83
2022/05/08 11:53:51;;;;;;;2.50;0.80;;;;;;;17.78;34.48;102000.28;105247;1287;62117;-83
2022/05/08 11:56:23;;;;;;;3.90;0.90;;;;;;;18.02;34.59;102005.41;105249;1287;75869;-82
2022/05/08 11:58:51;;;;;;;4.20;1.40;;;;;;;18.23;34.46;102001.43;105403;1288;71595;-82